메인 페이지
METAR-TAF:

METAR-TAF

공항 :

앤티가 섬, 앤티가 바부다

위도: 17-07N, 경도: 061-47W, 고도: 8m

현재 날씨관측

예보는 38분 전, 10:00시(UTC)에 발표되었습니다.
북동11kt풍과 동북동풍을 오가는
온도 23°C
습도 83%
기압 1017 hPa
시정 10km 이상
고도 1800ft 상공 구름 보통
고도 3600ft 상공 구름 많음

METAR: TAPA 181000Z 04011KT 010V070 9999 SCT018 BKN036 23/20 Q1017 NOSIG

시각: 06:38 (10:38 UTC)

예보

예보는 5 시간 38분 전, 05:00시(UTC)에 발표되었습니다.
예보 대상 시간: 18일 06시부터 19일 06시까지 (UTC)
동북동10kt
시정 10km 이상
고도 2100ft 상공 구름 보통
확률 30% :
일시적
18일 08시부터 18일 16시까지 (UTC)
소나기

TAF: TAPA 180500Z 1806/1906 06010KT 9999 SCT021 PROB30 TEMPO 1808/1816 SHRA

4,000개 이상의 공항 관측 자료 및 예보 (METAR 및 TAF 보고).

지도상에서 검색 가능한 기상관측소가 노란 점과 빨간 점으로 표시되어 있습니다.

기상관측소 명을 보려면 표시 위로 마우스를 이동하세요.

날씨 관측과 예보를 보려면 클릭하세요.

지도 변경 : 확대하려면 엑스 표시가 있는 녹색 버튼, 축소하려면 빼기 표시가 있는 녹색 버튼, 다음 페이지의 지도를 보려면 녹색 화살표를 클릭하세요.


METAR-TAF: